sensor_id;sensor_type;location;lat;lon;timestamp;P1;durP1;ratioP1;P2;durP2;ratioP2
15114;SDS011;7658;51.456;7.622;2023-08-06T00:00:38;10.32;;;6.57;;
15114;SDS011;7658;51.456;7.622;2023-08-06T00:03:03;8.02;;;6.22;;
15114;SDS011;7658;51.456;7.622;2023-08-06T00:05:29;7.75;;;5.90;;
15114;SDS011;7658;51.456;7.622;2023-08-06T00:07:55;7.47;;;5.90;;
15114;SDS011;7658;51.456;7.622;2023-08-06T00:10:21;7.32;;;6.35;;
15114;SDS011;7658;51.456;7.622;2023-08-06T00:12:46;10.70;;;6.22;;
15114;SDS011;7658;51.456;7.622;2023-08-06T00:15:13;8.85;;;5.90;;
15114;SDS011;7658;51.456;7.622;2023-08-06T00:17:39;9.70;;;5.68;;
15114;SDS011;7658;51.456;7.622;2023-08-06T00:20:05;7.00;;;5.70;;
15114;SDS011;7658;51.456;7.622;2023-08-06T00:22:35;11.13;;;6.15;;
15114;SDS011;7658;51.456;7.622;2023-08-06T00:25:02;10.60;;;5.40;;
15114;SDS011;7658;51.456;7.622;2023-08-06T00:27:28;6.60;;;5.55;;
15114;SDS011;7658;51.456;7.622;2023-08-06T00:29:54;10.48;;;6.13;;
15114;SDS011;7658;51.456;7.622;2023-08-06T00:32:20;7.32;;;5.40;;
15114;SDS011;7658;51.456;7.622;2023-08-06T00:34:46;6.70;;;5.60;;
15114;SDS011;7658;51.456;7.622;2023-08-06T00:37:14;9.30;;;6.25;;
15114;SDS011;7658;51.456;7.622;2023-08-06T00:39:43;7.43;;;5.60;;
15114;SDS011;7658;51.456;7.622;2023-08-06T00:42:09;7.78;;;6.07;;
15114;SDS011;7658;51.456;7.622;2023-08-06T00:44:36;11.23;;;6.20;;
15114;SDS011;7658;51.456;7.622;2023-08-06T00:47:02;10.05;;;5.97;;
15114;SDS011;7658;51.456;7.622;2023-08-06T00:49:28;7.82;;;5.78;;
15114;SDS011;7658;51.456;7.622;2023-08-06T00:51:54;7.45;;;5.28;;
15114;SDS011;7658;51.456;7.622;2023-08-06T00:54:21;9.10;;;5.60;;
15114;SDS011;7658;51.456;7.622;2023-08-06T00:56:48;9.63;;;5.63;;
15114;SDS011;7658;51.456;7.622;2023-08-06T00:59:14;8.02;;;5.38;;
15114;SDS011;7658;51.456;7.622;2023-08-06T01:01:40;8.35;;;5.65;;
15114;SDS011;7658;51.456;7.622;2023-08-06T01:04:06;10.38;;;5.95;;
15114;SDS011;7658;51.456;7.622;2023-08-06T01:09:25;6.97;;;5.55;;
15114;SDS011;7658;51.456;7.622;2023-08-06T01:14:52;8.05;;;6.00;;
15114;SDS011;7658;51.456;7.622;2023-08-06T01:17:23;7.85;;;5.28;;
15114;SDS011;7658;51.456;7.622;2023-08-06T01:19:51;9.05;;;5.60;;
15114;SDS011;7658;51.456;7.622;2023-08-06T01:22:18;8.07;;;5.63;;
15114;SDS011;7658;51.456;7.622;2023-08-06T01:24:45;7.32;;;5.78;;
15114;SDS011;7658;51.456;7.622;2023-08-06T01:27:38;11.25;;;5.78;;
15114;SDS011;7658;51.456;7.622;2023-08-06T01:30:20;9.77;;;6.00;;
15114;SDS011;7658;51.456;7.622;2023-08-06T01:32:55;7.88;;;5.65;;
15114;SDS011;7658;51.456;7.622;2023-08-06T01:35:25;8.75;;;5.05;;
15114;SDS011;7658;51.456;7.622;2023-08-06T01:37:52;10.23;;;5.72;;
15114;SDS011;7658;51.456;7.622;2023-08-06T01:40:19;9.13;;;6.18;;
15114;SDS011;7658;51.456;7.622;2023-08-06T01:42:45;8.57;;;5.80;;
15114;SDS011;7658;51.456;7.622;2023-08-06T01:45:11;7.45;;;6.22;;
15114;SDS011;7658;51.456;7.622;2023-08-06T01:47:36;14.25;;;6.32;;
15114;SDS011;7658;51.456;7.622;2023-08-06T01:50:02;8.27;;;5.90;;
15114;SDS011;7658;51.456;7.622;2023-08-06T01:52:28;8.25;;;6.07;;
15114;SDS011;7658;51.456;7.622;2023-08-06T01:54:54;10.68;;;6.00;;
15114;SDS011;7658;51.456;7.622;2023-08-06T01:57:21;10.05;;;6.07;;
15114;SDS011;7658;51.456;7.622;2023-08-06T01:59:46;7.00;;;5.80;;
15114;SDS011;7658;51.456;7.622;2023-08-06T02:02:12;7.40;;;5.40;;
15114;SDS011;7658;51.456;7.622;2023-08-06T02:04:38;6.85;;;5.75;;
15114;SDS011;7658;51.456;7.622;2023-08-06T02:07:04;8.35;;;6.38;;
15114;SDS011;7658;51.456;7.622;2023-08-06T02:09:29;7.47;;;6.22;;
15114;SDS011;7658;51.456;7.622;2023-08-06T02:11:55;6.95;;;6.18;;
15114;SDS011;7658;51.456;7.622;2023-08-06T02:14:21;7.35;;;5.43;;
15114;SDS011;7658;51.456;7.622;2023-08-06T02:16:47;10.10;;;6.28;;
15114;SDS011;7658;51.456;7.622;2023-08-06T02:19:12;6.68;;;5.72;;
15114;SDS011;7658;51.456;7.622;2023-08-06T02:21:38;9.27;;;5.70;;
15114;SDS011;7658;51.456;7.622;2023-08-06T02:24:04;7.60;;;6.30;;
15114;SDS011;7658;51.456;7.622;2023-08-06T02:26:30;6.72;;;5.95;;
15114;SDS011;7658;51.456;7.622;2023-08-06T02:28:55;11.02;;;6.32;;
15114;SDS011;7658;51.456;7.622;2023-08-06T02:31:21;9.23;;;6.10;;
15114;SDS011;7658;51.456;7.622;2023-08-06T02:33:47;7.68;;;6.50;;
15114;SDS011;7658;51.456;7.622;2023-08-06T02:36:12;8.88;;;6.65;;
15114;SDS011;7658;51.456;7.622;2023-08-06T02:38:38;8.43;;;6.43;;
15114;SDS011;7658;51.456;7.622;2023-08-06T02:41:04;7.55;;;5.80;;
15114;SDS011;7658;51.456;7.622;2023-08-06T02:43:30;9.57;;;6.90;;
15114;SDS011;7658;51.456;7.622;2023-08-06T02:45:56;8.55;;;5.93;;
15114;SDS011;7658;51.456;7.622;2023-08-06T02:48:23;6.80;;;6.07;;
15114;SDS011;7658;51.456;7.622;2023-08-06T02:50:48;7.32;;;6.28;;
15114;SDS011;7658;51.456;7.622;2023-08-06T02:53:14;8.73;;;5.85;;
15114;SDS011;7658;51.456;7.622;2023-08-06T02:55:44;9.38;;;6.43;;
15114;SDS011;7658;51.456;7.622;2023-08-06T02:58:13;7.90;;;5.75;;
15114;SDS011;7658;51.456;7.622;2023-08-06T03:00:40;7.97;;;6.05;;
15114;SDS011;7658;51.456;7.622;2023-08-06T03:03:05;8.13;;;5.97;;
15114;SDS011;7658;51.456;7.622;2023-08-06T03:05:31;8.85;;;6.00;;
15114;SDS011;7658;51.456;7.622;2023-08-06T03:07:57;10.90;;;5.97;;
15114;SDS011;7658;51.456;7.622;2023-08-06T03:10:23;8.52;;;5.78;;
15114;SDS011;7658;51.456;7.622;2023-08-06T03:12:48;8.73;;;6.40;;
15114;SDS011;7658;51.456;7.622;2023-08-06T03:15:14;8.93;;;6.65;;
15114;SDS011;7658;51.456;7.622;2023-08-06T03:17:40;9.13;;;5.78;;
15114;SDS011;7658;51.456;7.622;2023-08-06T03:20:06;9.23;;;6.78;;
15114;SDS011;7658;51.456;7.622;2023-08-06T03:22:32;9.00;;;6.78;;
15114;SDS011;7658;51.456;7.622;2023-08-06T03:24:58;12.55;;;6.95;;
15114;SDS011;7658;51.456;7.622;2023-08-06T03:27:25;9.07;;;6.70;;
15114;SDS011;7658;51.456;7.622;2023-08-06T03:29:51;7.68;;;5.95;;
15114;SDS011;7658;51.456;7.622;2023-08-06T03:32:16;9.23;;;6.68;;
15114;SDS011;7658;51.456;7.622;2023-08-06T03:34:42;8.90;;;6.00;;
15114;SDS011;7658;51.456;7.622;2023-08-06T03:37:08;6.30;;;5.65;;
15114;SDS011;7658;51.456;7.622;2023-08-06T03:39:33;8.13;;;6.18;;
15114;SDS011;7658;51.456;7.622;2023-08-06T03:41:59;7.30;;;5.75;;
15114;SDS011;7658;51.456;7.622;2023-08-06T03:44:25;10.05;;;6.35;;
15114;SDS011;7658;51.456;7.622;2023-08-06T03:46:52;8.20;;;5.78;;
15114;SDS011;7658;51.456;7.622;2023-08-06T03:49:18;12.00;;;5.88;;
15114;SDS011;7658;51.456;7.622;2023-08-06T03:51:43;8.27;;;5.78;;
15114;SDS011;7658;51.456;7.622;2023-08-06T03:54:09;6.47;;;5.10;;
15114;SDS011;7658;51.456;7.622;2023-08-06T03:56:35;8.73;;;6.13;;
15114;SDS011;7658;51.456;7.622;2023-08-06T03:59:01;7.80;;;5.75;;
15114;SDS011;7658;51.456;7.622;2023-08-06T04:01:26;11.98;;;6.13;;
15114;SDS011;7658;51.456;7.622;2023-08-06T04:03:52;7.43;;;5.80;;
15114;SDS011;7658;51.456;7.622;2023-08-06T04:06:18;6.35;;;5.68;;
15114;SDS011;7658;51.456;7.622;2023-08-06T04:08:44;7.30;;;6.00;;
15114;SDS011;7658;51.456;7.622;2023-08-06T04:11:09;6.55;;;5.78;;
15114;SDS011;7658;51.456;7.622;2023-08-06T04:13:35;7.18;;;5.97;;
15114;SDS011;7658;51.456;7.622;2023-08-06T04:16:04;8.48;;;5.90;;
15114;SDS011;7658;51.456;7.622;2023-08-06T04:18:30;11.23;;;6.40;;
15114;SDS011;7658;51.456;7.622;2023-08-06T04:20:56;7.55;;;5.88;;
15114;SDS011;7658;51.456;7.622;2023-08-06T04:23:22;9.57;;;5.97;;
15114;SDS011;7658;51.456;7.622;2023-08-06T04:25:49;8.50;;;5.97;;
15114;SDS011;7658;51.456;7.622;2023-08-06T04:28:14;13.27;;;6.68;;
15114;SDS011;7658;51.456;7.622;2023-08-06T04:30:40;10.55;;;5.88;;
15114;SDS011;7658;51.456;7.622;2023-08-06T04:33:06;8.63;;;6.18;;
15114;SDS011;7658;51.456;7.622;2023-08-06T04:35:32;7.57;;;6.40;;
15114;SDS011;7658;51.456;7.622;2023-08-06T04:37:57;8.75;;;6.65;;
15114;SDS011;7658;51.456;7.622;2023-08-06T04:40:23;7.45;;;5.63;;
15114;SDS011;7658;51.456;7.622;2023-08-06T04:42:49;9.48;;;6.32;;
15114;SDS011;7658;51.456;7.622;2023-08-06T04:45:15;7.78;;;6.82;;
15114;SDS011;7658;51.456;7.622;2023-08-06T04:47:40;7.78;;;6.28;;
15114;SDS011;7658;51.456;7.622;2023-08-06T04:50:06;7.63;;;6.43;;
15114;SDS011;7658;51.456;7.622;2023-08-06T04:52:32;10.05;;;6.88;;
15114;SDS011;7658;51.456;7.622;2023-08-06T04:54:58;11.10;;;7.15;;
15114;SDS011;7658;51.456;7.622;2023-08-06T04:57:24;9.68;;;6.07;;
15114;SDS011;7658;51.456;7.622;2023-08-06T04:59:49;12.02;;;6.53;;
15114;SDS011;7658;51.456;7.622;2023-08-06T05:02:15;7.07;;;6.20;;
15114;SDS011;7658;51.456;7.622;2023-08-06T05:04:41;8.38;;;5.85;;
15114;SDS011;7658;51.456;7.622;2023-08-06T05:07:07;7.57;;;5.88;;
15114;SDS011;7658;51.456;7.622;2023-08-06T05:09:33;9.85;;;6.53;;
15114;SDS011;7658;51.456;7.622;2023-08-06T05:12:01;8.93;;;6.55;;
15114;SDS011;7658;51.456;7.622;2023-08-06T05:14:28;12.55;;;6.38;;
15114;SDS011;7658;51.456;7.622;2023-08-06T05:16:54;6.75;;;6.07;;
15114;SDS011;7658;51.456;7.622;2023-08-06T05:19:20;8.77;;;5.78;;
15114;SDS011;7658;51.456;7.622;2023-08-06T05:21:45;8.02;;;6.15;;
15114;SDS011;7658;51.456;7.622;2023-08-06T05:24:11;6.85;;;5.50;;
15114;SDS011;7658;51.456;7.622;2023-08-06T05:26:37;7.32;;;5.75;;
15114;SDS011;7658;51.456;7.622;2023-08-06T05:29:03;7.72;;;5.47;;
15114;SDS011;7658;51.456;7.622;2023-08-06T05:31:28;11.75;;;9.45;;
15114;SDS011;7658;51.456;7.622;2023-08-06T05:33:54;20.77;;;11.73;;
15114;SDS011;7658;51.456;7.622;2023-08-06T05:36:20;9.93;;;6.78;;
15114;SDS011;7658;51.456;7.622;2023-08-06T05:38:46;17.95;;;11.20;;
15114;SDS011;7658;51.456;7.622;2023-08-06T05:41:12;11.43;;;7.72;;
15114;SDS011;7658;51.456;7.622;2023-08-06T05:43:38;11.00;;;6.60;;
15114;SDS011;7658;51.456;7.622;2023-08-06T05:46:04;11.25;;;6.80;;
15114;SDS011;7658;51.456;7.622;2023-08-06T05:48:30;6.65;;;5.88;;
15114;SDS011;7658;51.456;7.622;2023-08-06T05:50:57;7.78;;;6.28;;
15114;SDS011;7658;51.456;7.622;2023-08-06T05:53:23;9.63;;;6.60;;
15114;SDS011;7658;51.456;7.622;2023-08-06T05:55:49;6.82;;;5.55;;
15114;SDS011;7658;51.456;7.622;2023-08-06T05:58:15;7.68;;;5.85;;
15114;SDS011;7658;51.456;7.622;2023-08-06T06:00:41;8.73;;;5.40;;
15114;SDS011;7658;51.456;7.622;2023-08-06T06:03:07;8.18;;;5.25;;
15114;SDS011;7658;51.456;7.622;2023-08-06T06:05:32;7.18;;;5.68;;
15114;SDS011;7658;51.456;7.622;2023-08-06T06:07:58;8.27;;;5.85;;
15114;SDS011;7658;51.456;7.622;2023-08-06T06:10:24;7.43;;;5.55;;
15114;SDS011;7658;51.456;7.622;2023-08-06T06:12:49;8.48;;;5.18;;
15114;SDS011;7658;51.456;7.622;2023-08-06T06:15:15;8.40;;;5.25;;
15114;SDS011;7658;51.456;7.622;2023-08-06T06:17:41;8.88;;;5.43;;
15114;SDS011;7658;51.456;7.622;2023-08-06T06:23:00;8.30;;;5.10;;
15114;SDS011;7658;51.456;7.622;2023-08-06T06:25:33;9.52;;;4.95;;
15114;SDS011;7658;51.456;7.622;2023-08-06T06:27:59;5.80;;;4.50;;
15114;SDS011;7658;51.456;7.622;2023-08-06T06:30:25;5.50;;;4.43;;
15114;SDS011;7658;51.456;7.622;2023-08-06T06:33:01;8.00;;;4.35;;
15114;SDS011;7658;51.456;7.622;2023-08-06T06:35:26;6.20;;;4.38;;
15114;SDS011;7658;51.456;7.622;2023-08-06T06:37:52;8.55;;;4.53;;
15114;SDS011;7658;51.456;7.622;2023-08-06T06:40:18;6.13;;;4.43;;
15114;SDS011;7658;51.456;7.622;2023-08-06T06:42:43;9.90;;;4.20;;
15114;SDS011;7658;51.456;7.622;2023-08-06T06:45:09;5.07;;;3.55;;
15114;SDS011;7658;51.456;7.622;2023-08-06T06:47:37;6.13;;;3.85;;
15114;SDS011;7658;51.456;7.622;2023-08-06T06:50:03;5.43;;;3.78;;
15114;SDS011;7658;51.456;7.622;2023-08-06T06:52:29;5.35;;;3.70;;
15114;SDS011;7658;51.456;7.622;2023-08-06T06:54:55;5.03;;;3.03;;
15114;SDS011;7658;51.456;7.622;2023-08-06T06:57:20;6.10;;;3.60;;
15114;SDS011;7658;51.456;7.622;2023-08-06T06:59:46;6.10;;;3.63;;
15114;SDS011;7658;51.456;7.622;2023-08-06T07:02:12;6.18;;;3.28;;
15114;SDS011;7658;51.456;7.622;2023-08-06T07:04:38;3.83;;;3.50;;
15114;SDS011;7658;51.456;7.622;2023-08-06T07:07:13;6.30;;;3.85;;
15114;SDS011;7658;51.456;7.622;2023-08-06T07:09:38;4.50;;;3.72;;
15114;SDS011;7658;51.456;7.622;2023-08-06T07:12:04;6.15;;;3.75;;
15114;SDS011;7658;51.456;7.622;2023-08-06T07:14:30;4.20;;;2.90;;
15114;SDS011;7658;51.456;7.622;2023-08-06T07:16:56;3.53;;;2.97;;
15114;SDS011;7658;51.456;7.622;2023-08-06T07:19:23;6.43;;;3.30;;
15114;SDS011;7658;51.456;7.622;2023-08-06T07:21:49;4.60;;;3.22;;
15114;SDS011;7658;51.456;7.622;2023-08-06T07:24:14;4.55;;;3.55;;
15114;SDS011;7658;51.456;7.622;2023-08-06T07:26:40;6.03;;;3.50;;
15114;SDS011;7658;51.456;7.622;2023-08-06T07:29:06;3.67;;;3.20;;
15114;SDS011;7658;51.456;7.622;2023-08-06T07:31:31;5.03;;;2.90;;
15114;SDS011;7658;51.456;7.622;2023-08-06T07:33:57;3.30;;;2.95;;
15114;SDS011;7658;51.456;7.622;2023-08-06T07:36:33;5.30;;;2.92;;
15114;SDS011;7658;51.456;7.622;2023-08-06T07:38:59;5.70;;;3.22;;
15114;SDS011;7658;51.456;7.622;2023-08-06T07:41:25;4.32;;;3.08;;
15114;SDS011;7658;51.456;7.622;2023-08-06T07:43:51;4.38;;;3.30;;
15114;SDS011;7658;51.456;7.622;2023-08-06T07:46:17;5.30;;;3.08;;
15114;SDS011;7658;51.456;7.622;2023-08-06T07:48:43;4.03;;;3.10;;
15114;SDS011;7658;51.456;7.622;2023-08-06T07:51:09;3.72;;;2.70;;
15114;SDS011;7658;51.456;7.622;2023-08-06T07:53:36;3.03;;;2.70;;
15114;SDS011;7658;51.456;7.622;2023-08-06T07:56:04;5.80;;;3.03;;
15114;SDS011;7658;51.456;7.622;2023-08-06T07:58:30;5.28;;;3.03;;
15114;SDS011;7658;51.456;7.622;2023-08-06T08:01:03;3.72;;;3.10;;
15114;SDS011;7658;51.456;7.622;2023-08-06T08:03:28;4.60;;;3.03;;
15114;SDS011;7658;51.456;7.622;2023-08-06T08:05:55;6.07;;;3.10;;
15114;SDS011;7658;51.456;7.622;2023-08-06T08:08:24;4.35;;;2.80;;
15114;SDS011;7658;51.456;7.622;2023-08-06T08:11:00;2.88;;;2.55;;
15114;SDS011;7658;51.456;7.622;2023-08-06T08:13:28;3.30;;;2.85;;
15114;SDS011;7658;51.456;7.622;2023-08-06T08:15:57;3.72;;;2.63;;
15114;SDS011;7658;51.456;7.622;2023-08-06T08:18:27;6.38;;;2.85;;
15114;SDS011;7658;51.456;7.622;2023-08-06T08:20:54;3.33;;;2.40;;
15114;SDS011;7658;51.456;7.622;2023-08-06T08:27:01;3.90;;;3.05;;
15114;SDS011;7658;51.456;7.622;2023-08-06T08:29:27;3.38;;;2.90;;
15114;SDS011;7658;51.456;7.622;2023-08-06T08:31:53;7.22;;;3.00;;
15114;SDS011;7658;51.456;7.622;2023-08-06T08:34:18;3.72;;;3.00;;
15114;SDS011;7658;51.456;7.622;2023-08-06T08:36:44;5.93;;;2.47;;
15114;SDS011;7658;51.456;7.622;2023-08-06T08:39:14;3.92;;;2.63;;
15114;SDS011;7658;51.456;7.622;2023-08-06T08:41:40;6.10;;;3.00;;
15114;SDS011;7658;51.456;7.622;2023-08-06T08:44:10;6.22;;;2.97;;
15114;SDS011;7658;51.456;7.622;2023-08-06T08:46:38;5.43;;;2.72;;
15114;SDS011;7658;51.456;7.622;2023-08-06T08:49:06;5.20;;;3.97;;
15114;SDS011;7658;51.456;7.622;2023-08-06T08:51:32;6.80;;;3.67;;
15114;SDS011;7658;51.456;7.622;2023-08-06T08:54:00;6.32;;;4.10;;
15114;SDS011;7658;51.456;7.622;2023-08-06T08:56:28;4.18;;;3.60;;
15114;SDS011;7658;51.456;7.622;2023-08-06T08:58:54;4.50;;;3.45;;
15114;SDS011;7658;51.456;7.622;2023-08-06T09:01:21;4.75;;;3.20;;
15114;SDS011;7658;51.456;7.622;2023-08-06T09:03:48;4.43;;;3.15;;
15114;SDS011;7658;51.456;7.622;2023-08-06T09:06:16;4.50;;;3.10;;
15114;SDS011;7658;51.456;7.622;2023-08-06T09:09:17;4.80;;;3.50;;
15114;SDS011;7658;51.456;7.622;2023-08-06T09:11:44;7.05;;;3.10;;
15114;SDS011;7658;51.456;7.622;2023-08-06T09:14:10;5.65;;;3.20;;
15114;SDS011;7658;51.456;7.622;2023-08-06T09:16:37;3.70;;;3.05;;
15114;SDS011;7658;51.456;7.622;2023-08-06T09:19:06;4.60;;;2.97;;
15114;SDS011;7658;51.456;7.622;2023-08-06T09:21:35;4.88;;;3.25;;
15114;SDS011;7658;51.456;7.622;2023-08-06T09:24:06;5.30;;;3.17;;
15114;SDS011;7658;51.456;7.622;2023-08-06T09:26:36;6.53;;;3.42;;
15114;SDS011;7658;51.456;7.622;2023-08-06T09:29:06;6.80;;;2.90;;
15114;SDS011;7658;51.456;7.622;2023-08-06T09:31:40;6.70;;;3.85;;
15114;SDS011;7658;51.456;7.622;2023-08-06T09:34:10;4.63;;;3.13;;
15114;SDS011;7658;51.456;7.622;2023-08-06T09:36:41;9.20;;;3.70;;
15114;SDS011;7658;51.456;7.622;2023-08-06T09:39:21;7.97;;;3.45;;
15114;SDS011;7658;51.456;7.622;2023-08-06T09:44:48;5.15;;;3.47;;
15114;SDS011;7658;51.456;7.622;2023-08-06T09:47:15;3.97;;;3.33;;
15114;SDS011;7658;51.456;7.622;2023-08-06T09:49:43;5.35;;;3.33;;
15114;SDS011;7658;51.456;7.622;2023-08-06T09:52:11;5.28;;;3.40;;
15114;SDS011;7658;51.456;7.622;2023-08-06T09:54:37;5.22;;;3.35;;
15114;SDS011;7658;51.456;7.622;2023-08-06T09:57:04;5.55;;;3.58;;
15114;SDS011;7658;51.456;7.622;2023-08-06T09:59:31;5.65;;;3.53;;
15114;SDS011;7658;51.456;7.622;2023-08-06T10:01:58;4.00;;;3.10;;
15114;SDS011;7658;51.456;7.622;2023-08-06T10:04:25;4.18;;;3.08;;
15114;SDS011;7658;51.456;7.622;2023-08-06T10:06:51;5.38;;;2.58;;
15114;SDS011;7658;51.456;7.622;2023-08-06T10:09:18;4.15;;;2.63;;
15114;SDS011;7658;51.456;7.622;2023-08-06T10:11:48;5.35;;;2.92;;
15114;SDS011;7658;51.456;7.622;2023-08-06T10:16:50;3.03;;;2.33;;
15114;SDS011;7658;51.456;7.622;2023-08-06T10:19:16;4.93;;;2.63;;
15114;SDS011;7658;51.456;7.622;2023-08-06T10:22:07;3.78;;;2.90;;
15114;SDS011;7658;51.456;7.622;2023-08-06T10:24:56;6.93;;;2.95;;
15114;SDS011;7658;51.456;7.622;2023-08-06T10:27:33;5.00;;;2.83;;
15114;SDS011;7658;51.456;7.622;2023-08-06T10:32:52;8.40;;;3.67;;
15114;SDS011;7658;51.456;7.622;2023-08-06T10:35:38;8.13;;;4.60;;
15114;SDS011;7658;51.456;7.622;2023-08-06T10:38:22;9.23;;;6.82;;
15114;SDS011;7658;51.456;7.622;2023-08-06T10:43:26;9.50;;;7.40;;
15114;SDS011;7658;51.456;7.622;2023-08-06T10:45:57;18.02;;;11.98;;
15114;SDS011;7658;51.456;7.622;2023-08-06T10:50:56;22.00;;;17.30;;
15114;SDS011;7658;51.456;7.622;2023-08-06T10:53:24;20.83;;;15.93;;
15114;SDS011;7658;51.456;7.622;2023-08-06T10:55:50;21.80;;;15.88;;
15114;SDS011;7658;51.456;7.622;2023-08-06T10:58:16;20.23;;;17.10;;
15114;SDS011;7658;51.456;7.622;2023-08-06T11:00:42;19.88;;;15.77;;
15114;SDS011;7658;51.456;7.622;2023-08-06T11:03:08;17.90;;;14.73;;
15114;SDS011;7658;51.456;7.622;2023-08-06T11:05:34;17.23;;;13.52;;
15114;SDS011;7658;51.456;7.622;2023-08-06T11:08:01;22.60;;;14.23;;
15114;SDS011;7658;51.456;7.622;2023-08-06T11:10:26;19.58;;;14.35;;
15114;SDS011;7658;51.456;7.622;2023-08-06T11:12:52;17.45;;;14.85;;
15114;SDS011;7658;51.456;7.622;2023-08-06T11:15:19;20.10;;;13.57;;
15114;SDS011;7658;51.456;7.622;2023-08-06T11:17:46;15.82;;;13.02;;
15114;SDS011;7658;51.456;7.622;2023-08-06T11:20:12;13.27;;;11.48;;
15114;SDS011;7658;51.456;7.622;2023-08-06T11:22:38;14.38;;;10.60;;
15114;SDS011;7658;51.456;7.622;2023-08-06T11:25:05;13.55;;;10.25;;
15114;SDS011;7658;51.456;7.622;2023-08-06T11:27:33;11.05;;;8.75;;
15114;SDS011;7658;51.456;7.622;2023-08-06T11:29:59;11.15;;;8.27;;
15114;SDS011;7658;51.456;7.622;2023-08-06T11:32:24;8.32;;;6.45;;
15114;SDS011;7658;51.456;7.622;2023-08-06T11:34:52;6.22;;;5.47;;
15114;SDS011;7658;51.456;7.622;2023-08-06T11:37:23;7.10;;;4.95;;
15114;SDS011;7658;51.456;7.622;2023-08-06T11:39:50;8.27;;;5.05;;
15114;SDS011;7658;51.456;7.622;2023-08-06T11:42:16;6.07;;;4.57;;
15114;SDS011;7658;51.456;7.622;2023-08-06T11:44:42;7.45;;;4.75;;
15114;SDS011;7658;51.456;7.622;2023-08-06T11:47:12;8.20;;;4.95;;
15114;SDS011;7658;51.456;7.622;2023-08-06T11:49:46;9.68;;;5.20;;
15114;SDS011;7658;51.456;7.622;2023-08-06T11:57:29;5.57;;;4.68;;
15114;SDS011;7658;51.456;7.622;2023-08-06T12:00:00;8.38;;;4.50;;
15114;SDS011;7658;51.456;7.622;2023-08-06T12:02:33;6.13;;;4.88;;
15114;SDS011;7658;51.456;7.622;2023-08-06T12:05:19;8.85;;;5.95;;
15114;SDS011;7658;51.456;7.622;2023-08-06T12:07:49;6.70;;;4.85;;
15114;SDS011;7658;51.456;7.622;2023-08-06T12:10:21;5.70;;;4.13;;
15114;SDS011;7658;51.456;7.622;2023-08-06T12:12:49;4.93;;;4.32;;
15114;SDS011;7658;51.456;7.622;2023-08-06T12:15:15;4.30;;;3.45;;
15114;SDS011;7658;51.456;7.622;2023-08-06T12:17:41;6.38;;;3.78;;
15114;SDS011;7658;51.456;7.622;2023-08-06T12:20:07;3.47;;;3.17;;
15114;SDS011;7658;51.456;7.622;2023-08-06T12:22:34;4.05;;;3.65;;
15114;SDS011;7658;51.456;7.622;2023-08-06T12:25:04;5.07;;;3.78;;
15114;SDS011;7658;51.456;7.622;2023-08-06T12:27:34;5.65;;;4.05;;
15114;SDS011;7658;51.456;7.622;2023-08-06T12:30:00;5.60;;;4.05;;
15114;SDS011;7658;51.456;7.622;2023-08-06T12:32:26;4.50;;;3.75;;
15114;SDS011;7658;51.456;7.622;2023-08-06T12:34:51;5.75;;;4.18;;
15114;SDS011;7658;51.456;7.622;2023-08-06T12:37:17;4.32;;;3.63;;
15114;SDS011;7658;51.456;7.622;2023-08-06T12:39:43;3.53;;;3.22;;
15114;SDS011;7658;51.456;7.622;2023-08-06T12:42:09;3.90;;;3.58;;
15114;SDS011;7658;51.456;7.622;2023-08-06T12:44:35;6.03;;;3.97;;
15114;SDS011;7658;51.456;7.622;2023-08-06T12:47:01;4.35;;;3.78;;
15114;SDS011;7658;51.456;7.622;2023-08-06T12:49:27;4.63;;;3.85;;
15114;SDS011;7658;51.456;7.622;2023-08-06T12:51:54;5.72;;;4.65;;
15114;SDS011;7658;51.456;7.622;2023-08-06T12:54:21;8.00;;;5.40;;
15114;SDS011;7658;51.456;7.622;2023-08-06T12:56:48;7.03;;;5.57;;
15114;SDS011;7658;51.456;7.622;2023-08-06T12:59:15;6.80;;;5.50;;
15114;SDS011;7658;51.456;7.622;2023-08-06T13:01:43;6.07;;;5.35;;
15114;SDS011;7658;51.456;7.622;2023-08-06T13:04:09;6.68;;;5.32;;
15114;SDS011;7658;51.456;7.622;2023-08-06T13:06:35;5.47;;;4.97;;
15114;SDS011;7658;51.456;7.622;2023-08-06T13:09:02;6.00;;;5.50;;
15114;SDS011;7658;51.456;7.622;2023-08-06T13:11:32;6.88;;;5.72;;
15114;SDS011;7658;51.456;7.622;2023-08-06T13:14:05;5.82;;;5.22;;
15114;SDS011;7658;51.456;7.622;2023-08-06T13:16:38;5.50;;;5.00;;
15114;SDS011;7658;51.456;7.622;2023-08-06T13:19:06;4.63;;;4.22;;
15114;SDS011;7658;51.456;7.622;2023-08-06T13:24:28;4.22;;;3.70;;
15114;SDS011;7658;51.456;7.622;2023-08-06T13:26:54;3.90;;;3.53;;
15114;SDS011;7658;51.456;7.622;2023-08-06T13:29:22;4.15;;;3.25;;
15114;SDS011;7658;51.456;7.622;2023-08-06T13:31:48;3.08;;;2.88;;
15114;SDS011;7658;51.456;7.622;2023-08-06T13:34:13;3.10;;;2.80;;
15114;SDS011;7658;51.456;7.622;2023-08-06T13:36:41;3.65;;;2.65;;
15114;SDS011;7658;51.456;7.622;2023-08-06T13:39:07;4.47;;;2.40;;
15114;SDS011;7658;51.456;7.622;2023-08-06T13:41:33;3.17;;;2.25;;
15114;SDS011;7658;51.456;7.622;2023-08-06T13:43:59;2.40;;;1.80;;
15114;SDS011;7658;51.456;7.622;2023-08-06T13:46:24;1.98;;;1.88;;
15114;SDS011;7658;51.456;7.622;2023-08-06T13:48:50;2.10;;;1.90;;
15114;SDS011;7658;51.456;7.622;2023-08-06T13:51:16;2.15;;;1.67;;
15114;SDS011;7658;51.456;7.622;2023-08-06T13:53:42;1.95;;;1.85;;
15114;SDS011;7658;51.456;7.622;2023-08-06T13:56:09;1.80;;;1.70;;
15114;SDS011;7658;51.456;7.622;2023-08-06T13:58:36;2.03;;;1.83;;
15114;SDS011;7658;51.456;7.622;2023-08-06T14:01:05;1.80;;;1.70;;
15114;SDS011;7658;51.456;7.622;2023-08-06T14:03:32;1.70;;;1.60;;
15114;SDS011;7658;51.456;7.622;2023-08-06T14:05:57;1.80;;;1.70;;
15114;SDS011;7658;51.456;7.622;2023-08-06T14:08:24;1.98;;;1.80;;
15114;SDS011;7658;51.456;7.622;2023-08-06T14:10:53;1.90;;;1.80;;
15114;SDS011;7658;51.456;7.622;2023-08-06T14:13:19;3.42;;;2.03;;
15114;SDS011;7658;51.456;7.622;2023-08-06T14:15:45;1.80;;;1.70;;
15114;SDS011;7658;51.456;7.622;2023-08-06T14:18:14;2.00;;;1.90;;
15114;SDS011;7658;51.456;7.622;2023-08-06T14:20:40;2.03;;;1.92;;
15114;SDS011;7658;51.456;7.622;2023-08-06T14:23:07;2.10;;;2.00;;
15114;SDS011;7658;51.456;7.622;2023-08-06T14:25:33;2.00;;;1.88;;
15114;SDS011;7658;51.456;7.622;2023-08-06T14:27:59;3.25;;;2.20;;
15114;SDS011;7658;51.456;7.622;2023-08-06T14:30:24;2.10;;;2.00;;
15114;SDS011;7658;51.456;7.622;2023-08-06T14:32:50;2.00;;;1.90;;
15114;SDS011;7658;51.456;7.622;2023-08-06T14:35:16;1.92;;;1.83;;
15114;SDS011;7658;51.456;7.622;2023-08-06T14:37:42;2.10;;;2.00;;
15114;SDS011;7658;51.456;7.622;2023-08-06T14:40:09;2.20;;;2.10;;
15114;SDS011;7658;51.456;7.622;2023-08-06T14:42:36;1.88;;;1.77;;
15114;SDS011;7658;51.456;7.622;2023-08-06T14:45:02;3.17;;;1.98;;
15114;SDS011;7658;51.456;7.622;2023-08-06T14:47:28;2.00;;;1.90;;
15114;SDS011;7658;51.456;7.622;2023-08-06T14:49:54;2.22;;;1.98;;
15114;SDS011;7658;51.456;7.622;2023-08-06T14:52:20;2.25;;;2.00;;
15114;SDS011;7658;51.456;7.622;2023-08-06T14:54:46;2.40;;;2.20;;
15114;SDS011;7658;51.456;7.622;2023-08-06T14:57:12;2.40;;;2.20;;
15114;SDS011;7658;51.456;7.622;2023-08-06T14:59:38;2.00;;;1.90;;
15114;SDS011;7658;51.456;7.622;2023-08-06T15:02:05;2.50;;;2.30;;
15114;SDS011;7658;51.456;7.622;2023-08-06T15:04:31;2.28;;;2.10;;
15114;SDS011;7658;51.456;7.622;2023-08-06T15:06:57;2.42;;;2.17;;
15114;SDS011;7658;51.456;7.622;2023-08-06T15:09:22;3.38;;;2.40;;
15114;SDS011;7658;51.456;7.622;2023-08-06T15:11:48;2.67;;;2.42;;
15114;SDS011;7658;51.456;7.622;2023-08-06T15:14:14;2.50;;;2.30;;
15114;SDS011;7658;51.456;7.622;2023-08-06T15:16:40;2.72;;;2.40;;
15114;SDS011;7658;51.456;7.622;2023-08-06T15:19:06;2.35;;;2.15;;
15114;SDS011;7658;51.456;7.622;2023-08-06T15:21:32;3.10;;;2.80;;
15114;SDS011;7658;51.456;7.622;2023-08-06T15:23:58;2.78;;;2.58;;
15114;SDS011;7658;51.456;7.622;2023-08-06T15:26:24;3.63;;;2.88;;
15114;SDS011;7658;51.456;7.622;2023-08-06T15:28:50;2.90;;;2.70;;
15114;SDS011;7658;51.456;7.622;2023-08-06T15:31:19;3.33;;;3.00;;